• Join FlightAware (Why Join?)
  • Login
  • US Flag 
07:15PM EDT


 

Airport Tracker/Info


-or-


 

Live Flight TrackerFlight Track Log ✈ BER6502 ✈ 03-Nov-2013 ✈ EDDK / CGN - EDDT / TXL

Flight Track Log - Related Links

Times and Time Zones

All times are in EST time to prevent confusion due to time zone crossing. See the BER6502 flight status page for this flight to view local times or setup timezone preferences in your user account.

Time Position Orientation Groundspeed Altitude Reporting Facility
EST Latitude Longitude Course Direction KTS MPH feet Rate Location/Type
11:48AM 51.6629 9.8337 64° Northeast  Level Estimated
11:49AM 51.7078 9.9949 66° East  Level Estimated
11:50AM 51.7525 10.1564 66° East  Level Estimated
11:51AM 51.7970 10.3183 66° East  Level Estimated
11:52AM 51.8413 10.4804 66° East  Level Estimated
11:53AM 51.8853 10.6429 66° East  Level Estimated
11:54AM 51.9292 10.8057 66° East  Level Estimated
11:55AM 51.9728 10.9688 66° East  Level Estimated
11:56AM 52.0161 11.1322 67° East  Level Estimated
11:57AM 52.0593 11.2959 67° East  Level Estimated
11:58AM 52.1022 11.4600 67° East  Level Estimated
11:59AM 52.1449 11.6244 67° East  Level Estimated
12:00PM 52.1874 11.7890 67° East  Level Estimated
12:01PM 52.2296 11.9540 67° East  Level Estimated
12:02PM 52.2716 12.1194 67° East  Level Estimated
12:03PM 52.3134 12.2850 68° East  Level Estimated
12:04PM 52.3549 12.4509 68° East  Level Estimated
12:05PM 52.3962 12.6172 68° East  Level Estimated
12:06PM 52.4373 12.7837 68° East  Level Estimated
12:07PM 52.4781 12.9506 68° East  Level Estimated
12:08PM 52.5187 13.1178 68° East  Level Estimated
12:09PM 52.5591 13.2852 68° East  Level Estimated
12:10PM 52.5597 13.2877 68° East  Level Estimated
12:11PM 52.5597 13.2877 171° South  Level Estimated
12:12PM 52.5597 13.2877 171° South  Level Estimated
12:13PM 52.5597 13.2877 171° South  Level Estimated
12:14PM 52.5597 13.2877 171° South  Level Estimated
12:15PM 52.5597 13.2877 171° South  Level Estimated
12:16PM 52.5597 13.2877 171° South  Level Estimated
12:17PM 52.5597 13.2877 171° South  Level Estimated
12:18PM 52.5597 13.2877 171° South  Level Estimated
12:19PM 52.5597 13.2877 171° South  Level Estimated
12:20PM 52.5597 13.2877 171° South  Level Estimated
12:21PM 52.5597 13.2877 171° South  Level Estimated
12:22PM 52.5597 13.2877 171° South  Level Estimated
12:23PM 52.5597 13.2877 171° South  Level Estimated
12:24PM 52.5597 13.2877 171° South  Level Estimated
12:25PM 52.5597 13.2877 171° South  Level Estimated